Time;durP1;ratioP1;P1;durP2;ratioP2;P2;SDS_P1;SDS_P2;PMS_P1;PMS_P2;Temp;Humidity;BMP_temperature;BMP_pressure;BME280_temperature;BME280_humidity;BME280_pressure;Samples;Min_cycle;Max_cycle;Signal;HPM_P1;HPM_P2
2023/03/27 00:01:32;;;;;;;6.47;2.28;;;;;;;16.74;49.92;95402.19;5033440;28;20033;-32
2023/03/27 00:03:59;;;;;;;5.72;1.50;;;;;;;16.70;49.84;95404.38;5033719;28;20017;-32
2023/03/27 00:06:24;;;;;;;6.07;1.58;;;;;;;16.61;49.11;95399.84;5032168;28;20026;-32
2023/03/27 00:08:50;;;;;;;4.78;1.27;;;;;;;16.57;49.33;95384.91;5033350;28;20017;-33
2023/03/27 00:11:18;;;;;;;4.70;1.10;;;;;;;16.60;48.52;95384.66;5033732;28;20033;-32
2023/03/27 00:13:53;;;;;;;5.63;1.30;;;;;;;16.46;48.97;95388.31;5033521;28;20022;-34
2023/03/27 00:16:23;;;;;;;8.82;2.17;;;;;;;16.54;48.12;95381.16;5033302;28;20478;-32
2023/03/27 00:18:50;;;;;;;4.90;1.35;;;;;;;16.59;48.07;95382.41;5033866;28;20052;-33
2023/03/27 00:21:15;;;;;;;2.88;1.10;;;;;;;16.48;48.04;95392.06;5033502;28;20469;-33
2023/03/27 00:23:41;;;;;;;4.03;1.13;;;;;;;16.58;47.75;95367.97;5033434;28;20032;-32
2023/03/27 00:26:06;;;;;;;5.07;1.00;;;;;;;16.58;46.96;95373.44;5033460;28;20022;-33
2023/03/27 00:28:32;;;;;;;7.15;1.20;;;;;;;16.62;46.11;95360.31;5033231;28;20014;-32
2023/03/27 00:30:58;;;;;;;5.75;1.33;;;;;;;16.52;46.47;95359.00;5032835;28;20021;-33
2023/03/27 00:33:25;;;;;;;3.30;1.05;;;;;;;16.47;46.59;95355.00;5031946;28;20026;-33
2023/03/27 00:35:51;;;;;;;4.95;0.95;;;;;;;16.56;45.47;95343.09;5033232;28;20021;-32
2023/03/27 00:38:17;;;;;;;6.78;1.30;;;;;;;16.51;44.62;95361.00;5033291;28;20469;-33
2023/03/27 00:40:44;;;;;;;4.90;1.00;;;;;;;16.45;46.22;95352.00;5033242;28;20060;-32
2023/03/27 00:43:21;;;;;;;6.28;0.90;;;;;;;16.49;46.29;95360.72;5033030;28;20025;-33
2023/03/27 00:45:49;;;;;;;5.00;0.90;;;;;;;16.30;46.29;95351.44;5033398;28;20028;-34
2023/03/27 00:48:15;;;;;;;7.28;1.45;;;;;;;16.42;46.36;95349.50;5032819;28;20045;-32
2023/03/27 00:50:43;;;;;;;3.78;1.00;;;;;;;16.49;46.58;95343.56;5033540;28;20449;-33
2023/03/27 00:53:13;;;;;;;4.18;0.95;;;;;;;16.60;45.75;95331.91;5033030;28;20029;-34
2023/03/27 00:55:42;;;;;;;7.47;1.30;;;;;;;16.44;46.35;95336.09;5040839;28;20021;-32
2023/03/27 00:58:18;;;;;;;6.57;1.00;;;;;;;16.34;46.26;95332.03;5032225;28;20065;-33
2023/03/27 01:00:43;;;;;;;5.78;0.75;;;;;;;16.41;45.30;95337.81;5040230;28;20017;-34
2023/03/27 01:03:10;;;;;;;3.97;1.20;;;;;;;16.50;45.30;95339.59;5032875;28;20032;-33
2023/03/27 01:05:36;;;;;;;5.38;1.08;;;;;;;16.63;45.19;95337.19;5034206;28;20029;-33
2023/03/27 01:08:02;;;;;;;5.00;1.15;;;;;;;16.53;45.27;95333.13;5033121;28;20013;-32
2023/03/27 01:10:57;;;;;;;6.70;1.00;;;;;;;16.31;45.85;95333.78;5032686;28;20029;-32
2023/03/27 01:13:36;;;;;;;6.65;1.20;;;;;;;16.48;45.25;95336.59;5032348;28;20555;-32
2023/03/27 01:16:16;;;;;;;2.83;1.17;;;;;;;16.37;45.57;95336.53;5040718;28;20469;-33
2023/03/27 01:19:29;;;;;;;6.57;1.10;;;;;;;16.44;44.88;95331.34;5033317;28;20018;-33
2023/03/27 01:22:23;;;;;;;4.13;0.80;;;;;;;16.31;45.14;95338.50;5024096;28;20045;-34
2023/03/27 01:25:07;;;;;;;6.28;1.20;;;;;;;16.37;45.17;95331.06;5036567;28;20026;-33
2023/03/27 01:27:47;;;;;;;7.95;1.10;;;;;;;16.16;45.59;95333.22;5036744;28;20017;-32
2023/03/27 01:30:24;;;;;;;4.32;0.85;;;;;;;16.50;45.03;95318.44;5036946;28;20021;-32
2023/03/27 01:33:28;;;;;;;6.50;1.52;;;;;;;16.47;45.00;95319.41;5036570;28;20032;-32
2023/03/27 01:35:57;;;;;;;8.02;1.60;;;;;;;16.38;44.89;95327.09;5036032;28;20026;-32
2023/03/27 01:38:40;;;;;;;4.25;1.05;;;;;;;16.13;45.31;95326.72;5043743;28;20071;-32
2023/03/27 01:41:24;;;;;;;5.70;1.13;;;;;;;16.37;44.64;95315.41;5036129;28;20492;-33
2023/03/27 01:44:02;;;;;;;7.75;1.17;;;;;;;16.22;44.84;95311.34;5036066;28;20053;-32
2023/03/27 01:47:16;;;;;;;4.22;1.20;;;;;;;16.33;44.14;95314.13;5036259;28;20021;-33
2023/03/27 01:49:52;;;;;;;5.97;1.00;;;;;;;16.35;44.46;95301.47;5035305;28;20049;-33
2023/03/27 01:52:23;;;;;;;7.30;1.20;;;;;;;16.48;44.16;95293.56;5036024;28;20021;-32
2023/03/27 01:55:02;;;;;;;7.32;0.80;;;;;;;16.27;44.07;95297.69;5036068;28;20021;-34
2023/03/27 01:57:33;;;;;;;8.48;1.10;;;;;;;16.31;44.04;95294.75;5035916;28;20065;-32
2023/03/27 02:00:16;;;;;;;5.43;1.25;;;;;;;16.34;43.61;95299.22;5036167;28;20013;-32
2023/03/27 02:02:50;;;;;;;6.18;1.17;;;;;;;16.41;43.69;95293.28;5036209;28;20102;-32
2023/03/27 02:05:41;;;;;;;7.75;1.30;;;;;;;16.35;43.55;95292.50;5035807;28;20033;-34
2023/03/27 02:08:14;;;;;;;8.95;1.75;;;;;;;16.25;43.80;95286.50;5038687;28;20057;-32
2023/03/27 02:10:42;;;;;;;;;;;;;;;16.08;44.10;95278.19;5036652;28;20053;-32
2023/03/27 02:13:25;;;;;;;6.03;1.75;;;;;;;16.06;44.40;95275.22;5035789;28;19945;-32
2023/03/27 02:15:52;;;;;;;6.28;1.23;;;;;;;16.36;44.28;95263.91;5035822;28;20109;-32
2023/03/27 02:18:40;;;;;;;5.55;1.15;;;;;;;16.29;44.32;95254.19;5035825;28;20495;-34
2023/03/27 02:21:06;;;;;;;4.85;0.90;;;;;;;16.43;43.96;95258.72;5042746;28;20079;-33
2023/03/27 02:23:32;;;;;;;6.82;1.25;;;;;;;16.20;43.95;95267.31;5035608;28;20417;-33
2023/03/27 02:25:58;;;;;;;7.80;1.45;;;;;;;16.22;43.79;95273.03;5035058;28;20018;-32
2023/03/27 02:28:45;;;;;;;7.82;1.17;;;;;;;16.27;43.64;95273.09;5035077;28;20040;-33
2023/03/27 02:31:31;;;;;;;13.98;1.75;;;;;;;16.26;44.04;95279.78;5035672;28;20079;-32
2023/03/27 02:34:30;;;;;;;7.72;1.10;;;;;;;16.24;43.93;95273.31;5035178;28;20036;-33
2023/03/27 02:37:10;;;;;;;7.93;1.52;;;;;;;16.23;44.18;95256.16;5035181;28;20116;-32
2023/03/27 02:39:51;;;;;;;8.02;1.02;;;;;;;16.39;44.63;95262.94;5035197;28;20453;-32
2023/03/27 02:42:41;;;;;;;12.23;1.35;;;;;;;16.29;44.20;95265.13;5035117;28;20432;-32
2023/03/27 02:45:19;;;;;;;11.40;1.20;;;;;;;16.25;44.63;95277.53;5035340;28;20034;-33
2023/03/27 02:48:08;;;;;;;9.93;1.38;;;;;;;16.36;44.47;95275.59;5035087;28;20503;-32
2023/03/27 02:51:11;;;;;;;10.23;1.83;;;;;;;16.27;44.24;95269.59;5042282;28;20481;-33
2023/03/27 02:53:44;;;;;;;9.73;1.65;;;;;;;16.18;44.77;95270.56;5037977;28;20112;-32
2023/03/27 02:56:12;;;;;;;7.60;1.80;;;;;;;16.18;45.08;95270.56;5034801;28;20033;-32
2023/03/27 02:59:09;;;;;;;5.43;1.20;;;;;;;16.08;45.66;95266.50;5037229;28;20107;-33
2023/03/27 03:01:37;;;;;;;8.45;1.35;;;;;;;16.24;45.43;95262.38;5035828;28;20501;-33
2023/03/27 03:04:55;;;;;;;8.88;1.42;;;;;;;16.09;46.14;95263.28;5034877;28;20022;-33
2023/03/27 03:07:23;;;;;;;9.85;1.60;;;;;;;16.20;45.63;95267.31;5040588;28;20057;-32
2023/03/27 03:09:49;;;;;;;9.82;1.60;;;;;;;16.01;45.99;95277.94;5034842;28;20024;-32
2023/03/27 03:12:14;;;;;;;13.40;1.50;;;;;;;16.04;45.61;95277.69;5040033;28;20036;-32
2023/03/27 03:14:44;;;;;;;12.35;1.70;;;;;;;16.16;45.66;95268.31;5036237;28;20072;-33
2023/03/27 03:17:12;;;;;;;9.63;1.50;;;;;;;16.22;45.41;95264.84;5035114;28;20018;-33
2023/03/27 03:19:37;;;;;;;7.03;1.08;;;;;;;16.13;45.66;95258.34;5034266;28;20037;-32
2023/03/27 03:22:04;;;;;;;10.48;1.38;;;;;;;16.19;45.62;95255.66;5041521;28;20017;-32
2023/03/27 03:24:31;;;;;;;11.07;1.60;;;;;;;16.33;45.28;95259.41;5034396;28;20449;-32
2023/03/27 03:26:58;;;;;;;7.03;1.30;;;;;;;16.25;45.34;95247.44;5035182;28;20079;-32
2023/03/27 03:29:28;;;;;;;7.68;1.70;;;;;;;16.26;45.37;95249.69;5040423;28;20057;-32
2023/03/27 03:31:57;;;;;;;11.32;1.40;;;;;;;16.29;45.21;95243.25;5034098;28;20025;-32
2023/03/27 03:34:26;;;;;;;7.15;1.20;;;;;;;16.22;45.45;95238.22;5034036;28;20067;-33
2023/03/27 03:36:54;;;;;;;7.00;1.40;;;;;;;16.14;45.60;95242.69;5033812;28;20026;-33
2023/03/27 03:39:20;;;;;;;13.07;1.98;;;;;;;16.08;45.74;95239.91;5034275;28;20028;-32
2023/03/27 03:41:45;;;;;;;9.10;1.67;;;;;;;16.19;45.63;95255.66;5033849;28;20362;-32
2023/03/27 03:44:10;;;;;;;8.38;1.50;;;;;;;16.21;45.58;95255.88;5033447;28;20028;-34
2023/03/27 03:46:36;;;;;;;8.45;1.50;;;;;;;16.16;45.61;95260.09;5033959;28;20028;-32
2023/03/27 03:49:03;;;;;;;11.00;1.55;;;;;;;16.25;45.83;95255.66;5033839;28;20526;-32
2023/03/27 03:51:30;;;;;;;13.60;1.67;;;;;;;16.08;46.00;95250.84;5033482;28;20055;-32
2023/03/27 03:53:56;;;;;;;8.23;1.90;;;;;;;16.22;45.92;95248.41;5033769;28;20111;-32
2023/03/27 03:56:21;;;;;;;12.30;2.42;;;;;;;16.24;46.00;95245.94;5034016;28;20480;-32
2023/03/27 03:58:47;;;;;;;8.80;2.22;;;;;;;16.23;46.03;95247.19;5036784;28;20025;-33
2023/03/27 04:01:12;;;;;;;9.95;1.70;;;;;;;16.16;46.36;95240.97;5037631;28;20047;-32
2023/03/27 04:03:38;;;;;;;12.52;1.70;;;;;;;16.29;45.99;95253.44;5033566;28;20374;-32
2023/03/27 04:06:04;;;;;;;10.55;2.03;;;;;;;16.22;46.26;95248.41;5033807;28;20013;-32
2023/03/27 04:08:30;;;;;;;9.88;2.05;;;;;;;16.09;46.59;95252.34;5033554;28;20021;-33
2023/03/27 04:10:56;;;;;;;9.82;1.08;;;;;;;16.36;46.19;95247.47;5033427;28;20425;-33
2023/03/27 04:13:22;;;;;;;10.30;1.60;;;;;;;16.03;46.78;95248.84;5033416;28;20021;-32
2023/03/27 04:15:47;;;;;;;9.13;1.20;;;;;;;16.38;46.32;95245.00;5033475;28;20049;-32
2023/03/27 04:18:18;;;;;;;7.68;1.33;;;;;;;16.12;46.95;95247.91;5033270;28;20080;-32
2023/03/27 04:20:48;;;;;;;10.52;1.80;;;;;;;16.09;46.79;95246.88;5033311;28;20033;-33
2023/03/27 04:23:17;;;;;;;18.15;1.70;;;;;;;16.23;46.69;95245.19;5033713;28;20036;-32
2023/03/27 04:25:45;;;;;;;10.02;1.80;;;;;;;16.15;46.74;95247.66;5033398;28;20021;-32
2023/03/27 04:28:15;;;;;;;11.05;1.80;;;;;;;16.17;46.89;95231.50;5032754;28;20356;-34
2023/03/27 04:30:44;;;;;;;9.70;2.00;;;;;;;16.28;46.65;95233.53;5033201;28;20036;-33
2023/03/27 04:33:17;;;;;;;13.05;1.55;;;;;;;16.33;46.41;95232.78;5033103;28;20033;-33
2023/03/27 04:35:45;;;;;;;7.90;1.15;;;;;;;16.29;46.45;95237.03;5033465;28;20025;-32
2023/03/27 04:38:12;;;;;;;14.35;2.25;;;;;;;16.37;46.46;95246.25;5032873;28;20033;-32
2023/03/27 04:40:39;;;;;;;11.93;2.63;;;;;;;16.32;46.63;95238.78;5033059;28;20424;-32
2023/03/27 04:43:07;;;;;;;9.70;1.55;;;;;;;16.07;47.07;95232.94;5033013;28;20384;-32
2023/03/27 04:45:33;;;;;;;15.52;2.15;;;;;;;16.06;47.09;95228.75;5033327;28;20049;-32
2023/03/27 04:47:59;;;;;;;10.65;1.63;;;;;;;16.26;46.69;95233.28;5032560;28;20048;-33
2023/03/27 04:50:24;;;;;;;13.18;1.80;;;;;;;15.97;47.29;95250.81;5033035;28;20448;-33
2023/03/27 04:52:50;;;;;;;11.30;2.50;;;;;;;16.12;47.43;95245.16;5033079;28;20101;-33
2023/03/27 04:55:17;;;;;;;14.57;2.10;;;;;;;16.02;48.38;95247.34;5034243;28;20087;-32
2023/03/27 04:57:46;;;;;;;9.13;1.92;;;;;;;16.30;48.49;95233.06;5036978;28;20060;-32
2023/03/27 05:00:17;;;;;;;11.48;5.28;;;;;;;16.21;48.91;95235.97;5040857;28;20021;-33
2023/03/27 05:02:43;;;;;;;13.15;3.97;;;;;;;16.10;49.51;95223.75;5037618;28;20486;-32
2023/03/27 05:05:09;;;;;;;14.63;2.50;;;;;;;15.98;50.04;95219.50;5037283;28;20034;-32
2023/03/27 05:07:35;;;;;;;9.13;2.85;;;;;;;16.09;49.48;95230.47;5037165;28;20021;-33
2023/03/27 05:10:01;;;;;;;8.82;1.88;;;;;;;15.98;50.12;95224.97;5037007;28;20025;-32
2023/03/27 05:12:27;;;;;;;12.60;2.38;;;;;;;16.05;49.93;95234.69;5036934;28;20071;-32
2023/03/27 05:14:52;;;;;;;9.32;1.95;;;;;;;16.04;50.27;95236.69;5037496;28;20086;-33
2023/03/27 05:17:19;;;;;;;4.93;1.20;;;;;;;16.16;50.06;95235.50;5037020;28;20462;-32
2023/03/27 05:19:44;;;;;;;6.28;1.50;;;;;;;16.07;50.05;95227.47;5036746;28;20044;-32
2023/03/27 05:22:10;;;;;;;7.22;1.38;;;;;;;16.22;49.65;95221.06;5041144;28;20025;-34
2023/03/27 05:24:36;;;;;;;5.22;1.50;;;;;;;16.02;49.90;95214.53;5036579;28;20044;-32
2023/03/27 05:27:03;;;;;;;10.65;2.03;;;;;;;15.84;50.28;95225.13;5036373;28;20025;-32
2023/03/27 05:29:29;;;;;;;8.38;1.42;;;;;;;15.94;49.79;95227.19;5036603;28;20013;-33
2023/03/27 05:31:54;;;;;;;10.98;2.10;;;;;;;16.05;49.58;95219.03;5036453;28;20465;-33
2023/03/27 05:34:19;;;;;;;9.90;1.52;;;;;;;15.89;49.92;95211.50;5036288;28;20017;-32
2023/03/27 05:36:46;;;;;;;10.13;1.73;;;;;;;15.92;49.82;95212.50;5036092;28;20022;-32
2023/03/27 05:39:11;;;;;;;8.88;1.40;;;;;;;15.93;49.50;95216.75;5036279;28;20025;-33
2023/03/27 05:41:37;;;;;;;8.05;1.70;;;;;;;16.04;49.79;95231.22;5036533;28;20113;-33
2023/03/27 05:44:03;;;;;;;7.20;1.40;;;;;;;16.07;49.08;95221.28;5035905;28;20385;-32
2023/03/27 05:46:29;;;;;;;13.07;1.55;;;;;;;16.02;49.68;95225.47;5036374;28;20025;-33
2023/03/27 05:48:54;;;;;;;10.48;2.03;;;;;;;15.98;49.60;95222.22;5035230;28;20045;-32
2023/03/27 05:51:20;;;;;;;7.20;1.45;;;;;;;15.90;49.93;95229.41;5035054;28;20032;-32
2023/03/27 05:53:45;;;;;;;9.30;1.67;;;;;;;15.91;50.14;95221.94;5034623;28;20026;-34
2023/03/27 05:56:12;;;;;;;8.40;1.50;;;;;;;15.83;50.77;95213.44;5034872;28;20473;-32
2023/03/27 05:58:37;;;;;;;7.75;1.40;;;;;;;15.94;50.30;95213.53;5036842;28;20485;-32
2023/03/27 06:01:03;;;;;;;7.95;1.80;;;;;;;16.13;49.45;95211.84;5040042;28;20017;-32
2023/03/27 06:03:29;;;;;;;9.43;1.40;;;;;;;15.99;49.59;95201.84;5034474;28;20025;-33
2023/03/27 06:05:58;;;;;;;9.80;1.48;;;;;;;15.98;50.31;95197.63;5034080;28;20223;-33
2023/03/27 06:08:26;;;;;;;6.72;1.77;;;;;;;16.00;49.99;95184.19;5034368;28;20045;-32
2023/03/27 06:10:51;;;;;;;10.07;1.70;;;;;;;15.89;49.92;95192.38;5034556;28;20029;-32
2023/03/27 06:13:17;;;;;;;10.43;1.42;;;;;;;15.89;50.10;95192.38;5034419;28;20350;-33
2023/03/27 06:15:43;;;;;;;7.97;1.95;;;;;;;15.76;50.22;95195.53;5034501;28;20098;-33
2023/03/27 06:18:10;;;;;;;9.07;1.58;;;;;;;16.00;49.76;95195.13;5034460;28;20022;-32
2023/03/27 06:20:36;;;;;;;10.75;1.50;;;;;;;15.86;49.92;95201.53;5034655;28;20132;-32
2023/03/27 06:23:05;;;;;;;5.65;1.20;;;;;;;15.88;49.97;95204.53;5034610;28;20029;-32
2023/03/27 06:25:32;;;;;;;5.72;1.77;;;;;;;15.93;49.67;95222.97;5034355;28;20457;-32
2023/03/27 06:27:58;;;;;;;8.30;1.40;;;;;;;15.97;49.99;95237.13;5034226;28;20040;-33
2023/03/27 06:30:25;;;;;;;7.93;1.70;;;;;;;15.96;50.03;95254.78;5033148;28;20017;-32
2023/03/27 06:32:58;;;;;;;13.48;2.35;;;;;;;15.94;50.12;95272.94;5034255;28;20044;-33
2023/03/27 06:35:25;;;;;;;9.07;1.88;;;;;;;15.86;50.04;95283.56;5034216;28;20017;-33
2023/03/27 06:37:51;;;;;;;9.05;1.70;;;;;;;15.87;50.00;95287.78;5033809;28;20023;-33
2023/03/27 06:40:22;;;;;;;11.20;1.48;;;;;;;15.82;50.05;95295.97;5034477;28;20389;-34
2023/03/27 06:42:49;;;;;;;8.15;1.67;;;;;;;15.91;49.69;95299.25;5034406;28;20376;-32
2023/03/27 06:45:15;;;;;;;10.25;1.17;;;;;;;15.97;49.61;95304.75;5033739;28;20079;-32
2023/03/27 06:50:37;;;;;;;4.13;0.90;;;;;;;15.97;49.07;95323.88;5067403;27;20485;-33
2023/03/27 06:53:04;;;;;;;6.50;1.23;;;;;;;15.79;49.05;95333.22;5067380;28;20037;-32
2023/03/27 06:55:32;;;;;;;5.55;1.13;;;;;;;15.98;48.44;95339.06;5066146;28;20028;-32
2023/03/27 06:57:59;;;;;;;4.85;1.10;;;;;;;15.85;48.65;95336.75;5067407;28;20515;-32
2023/03/27 07:00:30;;;;;;;2.17;1.15;;;;;;;15.73;48.31;95330.44;5053819;28;20021;-32
2023/03/27 07:02:58;;;;;;;3.15;0.88;;;;;;;15.75;48.19;95321.75;5067342;28;20017;-33
2023/03/27 07:05:26;;;;;;;3.72;0.88;;;;;;;15.74;48.11;95309.31;5066703;28;20029;-32
2023/03/27 07:07:53;;;;;;;1.88;0.68;;;;;;;15.73;47.92;95294.16;5066481;28;20557;-32
2023/03/27 07:10:19;;;;;;;6.20;1.45;;;;;;;15.66;48.32;95294.63;5066587;28;20452;-33
2023/03/27 07:12:45;;;;;;;1.38;0.60;;;;;;;15.64;48.30;95300.56;5065662;28;20029;-33
2023/03/27 07:15:11;;;;;;;3.90;0.90;;;;;;;15.66;48.53;95300.09;5059649;28;20030;-33
2023/03/27 07:17:36;;;;;;;4.50;1.10;;;;;;;15.90;48.21;95305.22;5063711;28;20035;-33
2023/03/27 07:20:05;;;;;;;4.57;0.80;;;;;;;15.59;48.67;95282.13;5066102;28;20021;-34
2023/03/27 07:22:30;;;;;;;3.50;0.73;;;;;;;15.51;48.68;95261.19;5067034;28;20013;-33
2023/03/27 07:24:56;;;;;;;2.30;0.70;;;;;;;15.66;48.10;95265.31;5065529;28;20483;-32
2023/03/27 07:27:24;;;;;;;1.38;0.60;;;;;;;15.57;48.63;95281.16;5066698;28;20052;-32
2023/03/27 07:29:49;;;;;;;1.42;0.50;;;;;;;15.68;48.29;95297.63;5065968;28;20032;-33
2023/03/27 07:32:15;;;;;;;1.38;0.70;;;;;;;15.69;48.07;95316.28;5065539;28;20033;-33
2023/03/27 07:34:41;;;;;;;2.47;0.75;;;;;;;15.56;48.09;95339.78;5066750;28;20023;-32
2023/03/27 07:37:06;;;;;;;1.92;0.60;;;;;;;15.65;47.93;95339.59;5057734;28;20036;-32
2023/03/27 07:39:32;;;;;;;2.50;0.77;;;;;;;15.50;47.78;95347.13;5066620;28;20033;-32
2023/03/27 07:41:58;;;;;;;3.00;1.13;;;;;;;15.57;47.64;95357.66;5065208;28;20052;-32
2023/03/27 07:44:24;;;;;;;2.72;0.75;;;;;;;15.56;47.70;95356.91;5065372;28;20495;-32
2023/03/27 07:46:52;;;;;;;2.53;0.68;;;;;;;15.61;47.81;95355.44;5066682;28;20020;-32
2023/03/27 07:49:18;;;;;;;3.22;0.60;;;;;;;15.74;47.43;95355.78;5064499;28;20037;-32
2023/03/27 07:51:44;;;;;;;3.83;1.25;;;;;;;15.77;46.96;95358.31;5066133;28;20032;-32
2023/03/27 07:54:12;;;;;;;4.47;1.10;;;;;;;15.79;47.18;95374.97;5066336;28;20021;-32
2023/03/27 07:56:38;;;;;;;3.90;0.60;;;;;;;15.73;47.74;95376.91;5064917;28;20025;-33
2023/03/27 07:59:04;;;;;;;2.33;0.60;;;;;;;15.66;47.80;95374.63;5060784;28;20423;-33
2023/03/27 08:01:31;;;;;;;1.23;0.55;;;;;;;15.62;47.96;95389.75;5052064;28;20025;-33
2023/03/27 08:03:56;;;;;;;7.50;0.90;;;;;;;15.84;47.65;95389.91;5052441;28;20372;-30
2023/03/27 08:06:22;;;;;;;4.82;1.40;;;;;;;15.80;47.63;95397.59;5051632;28;20012;-32
2023/03/27 08:08:49;;;;;;;3.75;1.02;;;;;;;16.03;47.04;95396.53;5051079;28;20029;-32
2023/03/27 08:11:15;;;;;;;2.47;1.08;;;;;;;16.05;46.57;95393.31;5052869;28;20082;-32
2023/03/27 08:13:41;;;;;;;4.57;1.00;;;;;;;15.98;46.77;95394.50;5050794;28;20021;-33
2023/03/27 08:16:16;;;;;;;3.78;0.90;;;;;;;15.82;47.15;95404.06;5052549;28;20021;-33
2023/03/27 08:18:43;;;;;;;2.42;1.00;;;;;;;15.78;47.48;95400.81;5051399;28;20415;-32
2023/03/27 08:21:10;;;;;;;2.72;0.88;;;;;;;15.79;47.60;95407.03;5038205;28;20425;-32
2023/03/27 08:23:36;;;;;;;2.67;0.73;;;;;;;15.91;47.52;95408.63;5045565;28;20052;-32
2023/03/27 08:26:04;;;;;;;2.00;1.00;;;;;;;16.01;46.83;95409.19;5050512;28;20503;-32
2023/03/27 08:28:31;;;;;;;2.50;0.80;;;;;;;16.05;46.33;95410.47;5052644;28;20037;-33
2023/03/27 08:30:58;;;;;;;1.50;0.70;;;;;;;16.06;45.93;95411.97;5050877;28;20082;-32
2023/03/27 08:33:26;;;;;;;2.60;0.80;;;;;;;15.87;46.43;95421.75;5052483;28;20047;-32
2023/03/27 08:35:52;;;;;;;2.50;0.60;;;;;;;16.00;46.68;95416.63;5045338;28;20033;-32
2023/03/27 08:38:18;;;;;;;3.97;1.65;;;;;;;16.15;46.84;95422.72;5050843;28;20370;-33
2023/03/27 08:40:51;;;;;;;4.13;1.52;;;;;;;16.27;46.53;95417.31;5047609;28;20025;-33
2023/03/27 08:43:22;;;;;;;2.50;0.73;;;;;;;16.22;46.21;95426.22;5049728;28;20017;-32
2023/03/27 08:45:56;;;;;;;2.25;1.17;;;;;;;16.36;46.47;95430.81;5052266;28;20079;-32
2023/03/27 08:48:31;;;;;;;1.55;0.77;;;;;;;16.30;46.00;95435.50;5050185;28;20460;-32
2023/03/27 08:51:08;;;;;;;3.28;0.80;;;;;;;16.40;46.46;95434.06;5051988;28;20147;-33
2023/03/27 08:53:45;;;;;;;2.53;0.95;;;;;;;16.61;45.36;95432.69;5050836;28;20111;-33
2023/03/27 08:56:16;;;;;;;1.60;0.47;;;;;;;16.33;45.20;95426.31;5042220;28;20022;-32
2023/03/27 08:58:43;;;;;;;5.03;1.40;;;;;;;16.50;45.14;95422.44;5048197;28;20600;-32
2023/03/27 09:01:29;;;;;;;3.30;1.20;;;;;;;16.72;45.42;95424.56;5047584;28;20493;-33
2023/03/27 09:04:16;;;;;;;4.63;1.35;;;;;;;16.68;46.24;95429.53;5038051;28;20150;-34
2023/03/27 09:07:36;;;;;;;3.78;1.33;;;;;;;16.80;45.92;95428.34;5042240;28;20384;-32
2023/03/27 09:10:14;;;;;;;4.70;1.48;;;;;;;16.60;45.51;95425.72;5016933;28;20034;-33
2023/03/27 09:12:54;;;;;;;3.45;1.00;;;;;;;16.61;46.64;95432.69;5037491;28;20080;-32
2023/03/27 09:15:33;;;;;;;2.95;0.77;;;;;;;16.67;45.97;95441.72;5042363;28;20051;-33
2023/03/27 09:18:10;;;;;;;2.80;0.80;;;;;;;16.87;46.42;95449.78;5041806;28;20136;-32
2023/03/27 09:20:48;;;;;;;2.65;0.75;;;;;;;16.96;46.69;95446.06;5042011;28;20033;-32
2023/03/27 09:23:27;;;;;;;2.80;0.95;;;;;;;17.02;46.33;95443.38;5028796;28;20476;-32
2023/03/27 09:26:02;;;;;;;2.25;0.70;;;;;;;16.99;46.77;95449.84;5040639;28;20044;-32
2023/03/27 09:28:38;;;;;;;3.95;1.02;;;;;;;17.02;46.03;95457.06;5038596;28;20036;-33
2023/03/27 09:31:23;;;;;;;4.55;0.90;;;;;;;16.95;46.31;95460.25;5039275;28;20065;-32
2023/03/27 09:33:49;;;;;;;6.35;0.93;;;;;;;16.86;46.25;95464.72;5041812;28;20028;-32
2023/03/27 09:36:16;;;;;;;5.07;0.90;;;;;;;16.72;46.50;95464.88;5032458;28;20051;-32
2023/03/27 09:38:44;;;;;;;3.72;0.70;;;;;;;16.83;46.46;95470.41;5041769;28;20515;-33
2023/03/27 09:41:45;;;;;;;3.33;0.75;;;;;;;16.86;45.84;95486.63;5033084;28;20033;-32
2023/03/27 09:44:16;;;;;;;3.58;0.60;;;;;;;16.99;45.65;95499.13;5015211;28;20478;-32
2023/03/27 09:46:46;;;;;;;1.60;0.60;;;;;;;16.88;45.37;95492.34;5050999;28;20031;-32
2023/03/27 09:49:15;;;;;;;3.60;0.63;;;;;;;17.14;45.32;95489.50;5049407;28;20053;-32
2023/03/27 09:51:50;;;;;;;2.58;0.55;;;;;;;16.95;45.69;95487.66;5034377;28;20454;-32
2023/03/27 09:54:19;;;;;;;2.85;0.60;;;;;;;16.92;45.63;95483.16;5047260;28;20377;-33
2023/03/27 09:57:03;;;;;;;2.65;0.90;;;;;;;17.03;45.71;95483.97;5036906;28;20021;-32
2023/03/27 09:59:36;;;;;;;3.00;1.00;;;;;;;17.13;45.91;95487.25;5042714;28;20032;-32
2023/03/27 10:02:25;;;;;;;4.63;0.70;;;;;;;16.90;46.31;95496.59;5050935;28;20021;-32
2023/03/27 10:05:21;;;;;;;3.13;0.70;;;;;;;17.14;46.31;95502.44;5048286;28;20104;-33
2023/03/27 10:07:46;;;;;;;6.35;1.10;;;;;;;17.07;45.83;95502.91;5049088;28;20052;-31
2023/03/27 10:10:16;;;;;;;3.38;0.60;;;;;;;17.02;46.04;95501.66;5043908;28;20473;-33
2023/03/27 10:12:42;;;;;;;2.28;0.60;;;;;;;17.10;45.62;95497.19;5048991;28;20016;-32
2023/03/27 10:15:35;;;;;;;3.40;0.63;;;;;;;17.30;45.44;95499.03;5050474;28;20048;-32
2023/03/27 10:18:28;;;;;;;4.50;1.25;;;;;;;17.23;45.92;95502.22;5041673;28;20362;-32
2023/03/27 10:20:57;;;;;;;4.22;0.80;;;;;;;17.18;45.89;95494.75;5049083;28;20377;-32
2023/03/27 10:23:43;;;;;;;4.65;1.30;;;;;;;17.34;45.78;95494.03;5043326;28;20039;-32
2023/03/27 10:26:12;;;;;;;5.53;1.30;;;;;;;17.18;45.46;95492.00;5050198;28;20481;-32
2023/03/27 10:28:44;;;;;;;2.50;0.80;;;;;;;17.28;45.20;95493.28;5050378;28;20024;-33
2023/03/27 10:31:28;;;;;;;2.10;1.08;;;;;;;17.40;44.78;95499.56;5049368;28;20030;-32
2023/03/27 10:33:55;;;;;;;2.35;0.80;;;;;;;17.24;44.70;95496.25;5049403;28;20024;-32
2023/03/27 10:36:21;;;;;;;1.73;0.63;;;;;;;17.36;44.77;95504.50;5042750;28;20025;-32
2023/03/27 10:38:59;;;;;;;4.10;0.80;;;;;;;17.42;44.34;95503.31;5050499;28;20077;-32
2023/03/27 10:41:27;;;;;;;3.67;0.75;;;;;;;17.26;44.65;95493.03;5042324;28;20033;-32
2023/03/27 10:43:53;;;;;;;4.43;0.80;;;;;;;17.39;44.69;95501.53;5050349;28;20035;-32
2023/03/27 10:46:22;;;;;;;6.75;0.90;;;;;;;17.29;44.65;95507.75;5048403;28;20030;-32
2023/03/27 10:49:08;;;;;;;5.47;1.02;;;;;;;17.42;44.79;95508.78;5049935;28;20041;-32
2023/03/27 10:51:43;;;;;;;4.03;1.08;;;;;;;17.45;44.80;95513.25;5048795;28;20078;-32
2023/03/27 10:54:27;;;;;;;4.47;1.25;;;;;;;17.34;45.40;95513.22;5048862;28;20021;-32
2023/03/27 10:57:01;;;;;;;2.28;1.10;;;;;;;17.56;44.68;95507.06;5033045;28;20029;-33
2023/03/27 10:59:34;;;;;;;5.53;1.40;;;;;;;17.54;44.66;95515.06;5039416;28;20022;-31
2023/03/27 11:02:11;;;;;;;3.72;1.10;;;;;;;17.49;44.53;95513.03;5043308;28;20013;-32
2023/03/27 11:04:48;;;;;;;3.60;1.10;;;;;;;17.40;43.83;95516.75;5048319;28;20074;-32
2023/03/27 11:07:21;;;;;;;3.70;1.10;;;;;;;17.42;43.78;95508.03;5049991;28;20437;-32
2023/03/27 11:10:03;;;;;;;3.43;1.20;;;;;;;17.46;44.54;95514.00;5048328;28;20034;-32
2023/03/27 11:12:32;;;;;;;3.80;1.10;;;;;;;17.53;44.21;95503.34;5049776;28;20025;-33
2023/03/27 11:15:21;;;;;;;4.57;1.25;;;;;;;17.59;43.69;95493.13;5035022;28;20022;-32
2023/03/27 11:17:55;;;;;;;4.70;0.88;;;;;;;17.44;43.86;95500.81;5040587;28;20553;-32
2023/03/27 11:20:25;;;;;;;3.63;0.90;;;;;;;17.59;43.87;95490.38;5050064;28;20388;-32
2023/03/27 11:23:10;;;;;;;4.28;1.10;;;;;;;17.58;42.84;95479.91;5048179;28;20381;-32
2023/03/27 11:25:50;;;;;;;3.88;1.10;;;;;;;17.52;43.09;95487.38;5041969;28;20108;-32
2023/03/27 11:28:18;;;;;;;5.20;0.93;;;;;;;17.56;43.44;95485.88;5033128;28;20029;-32
2023/03/27 11:30:50;;;;;;;3.78;1.40;;;;;;;17.63;43.15;95472.94;5045000;28;20388;-32
2023/03/27 11:33:42;;;;;;;3.53;1.00;;;;;;;17.59;42.92;95478.66;5041963;28;20018;-33
2023/03/27 11:36:42;;;;;;;7.10;2.00;;;;;;;17.64;42.53;95485.44;5042740;28;20017;-32
2023/03/27 11:39:14;;;;;;;4.32;1.50;;;;;;;17.58;41.88;95497.09;5050666;28;20414;-31
2023/03/27 11:41:43;;;;;;;3.08;1.30;;;;;;;17.68;41.83;95485.97;5045050;28;20040;-32
2023/03/27 11:44:10;;;;;;;4.63;1.52;;;;;;;17.76;41.85;95479.50;5051753;28;20044;-32
2023/03/27 11:47:02;;;;;;;6.80;1.42;;;;;;;17.65;42.21;95493.19;5053281;28;20503;-32
2023/03/27 11:49:39;;;;;;;4.05;1.42;;;;;;;17.65;42.59;95486.94;5051575;28;20064;-32
2023/03/27 11:52:05;;;;;;;4.88;1.20;;;;;;;17.65;41.92;95490.44;5053409;28;20056;-32
2023/03/27 11:54:46;;;;;;;2.33;1.20;;;;;;;17.78;41.86;95482.50;5051696;28;20107;-32
2023/03/27 11:57:24;;;;;;;4.07;1.08;;;;;;;17.60;41.93;95480.91;5053364;28;20423;-32